Time,TemperatureF,DewpointF,PressureIn,WindDirection,WindDirectionDegrees,WindSpeedMPH,WindSpeedGustMPH,Humidity,HourlyPrecipIn,Conditions,Clouds,dailyrainin,SolarRadiationWatts/m^2,SoftwareType,DateUTC
2013-03-07 00:00:00,35.9,18.3,29.94,WSW,248,2.0,-999.0,51,-99.99,,,0.00,0.0,cwc,2013-03-07 07:00:00,
2013-03-07 00:05:00,36.0,18.0,29.94,WSW,248,3.0,-999.0,50,-99.99,,,0.00,0.0,cwc,2013-03-07 07:05:00,
2013-03-07 00:10:00,35.7,17.7,29.94,WSW,248,0.0,-999.0,50,-99.99,,,0.00,0.0,cwc,2013-03-07 07:10:00,
2013-03-07 00:15:00,35.3,17.7,29.94,WSW,248,2.0,-999.0,51,-99.99,,,0.00,0.0,cwc,2013-03-07 07:15:00,
2013-03-07 00:20:00,34.8,17.5,29.94,WSW,248,0.0,-999.0,52,-99.99,,,0.00,0.0,cwc,2013-03-07 07:20:00,
2013-03-07 00:25:00,34.4,17.5,29.94,WSW,248,0.0,-999.0,53,-99.99,,,0.00,0.0,cwc,2013-03-07 07:25:00,
2013-03-07 00:30:00,34.0,17.4,29.94,WSW,248,0.0,-999.0,54,-99.99,,,0.00,0.0,cwc,2013-03-07 07:30:00,
2013-03-07 00:40:00,33.4,17.9,29.95,WSW,248,0.0,-999.0,57,-99.99,,,0.00,0.0,cwc,2013-03-07 07:40:00,
2013-03-07 00:45:00,33.6,18.1,29.95,WSW,248,0.0,-999.0,57,-99.99,,,0.00,0.0,cwc,2013-03-07 07:45:00,
2013-03-07 00:55:00,34.3,17.0,29.95,WSW,248,0.0,-999.0,52,-99.99,,,0.00,0.0,cwc,2013-03-07 07:55:00,
2013-03-07 01:00:00,33.9,17.3,29.96,WSW,248,2.0,-999.0,54,-99.99,,,0.00,0.0,cwc,2013-03-07 08:00:00,
2013-03-07 01:05:00,33.3,16.7,29.96,WSW,248,0.0,-999.0,54,-99.99,,,0.00,0.0,cwc,2013-03-07 08:05:00,
2013-03-07 01:10:00,32.9,16.7,29.96,WSW,248,0.0,-999.0,55,-99.99,,,0.00,0.0,cwc,2013-03-07 08:10:00,
2013-03-07 01:15:00,32.5,16.3,29.96,WSW,248,1.0,-999.0,55,-99.99,,,0.00,0.0,cwc,2013-03-07 08:15:00,
2013-03-07 01:25:00,31.5,16.4,29.97,WSW,248,3.0,-999.0,58,-99.99,,,0.00,0.0,cwc,2013-03-07 08:25:00,
2013-03-07 01:30:00,31.3,16.5,29.97,WSW,248,2.0,-999.0,59,-99.99,,,0.00,0.0,cwc,2013-03-07 08:30:00,
2013-03-07 01:40:00,31.1,16.0,29.97,WSW,248,0.0,-999.0,58,-99.99,,,0.00,0.0,cwc,2013-03-07 08:40:00,
2013-03-07 01:45:00,30.8,15.3,29.97,WSW,248,0.0,-999.0,57,-99.99,,,0.00,0.0,cwc,2013-03-07 08:45:00,
2013-03-07 01:55:00,29.9,15.5,29.97,WSW,248,0.0,-999.0,60,-99.99,,,0.00,0.0,cwc,2013-03-07 08:55:00,
2013-03-07 02:00:00,29.6,15.2,29.97,WSW,248,0.0,-999.0,60,-99.99,,,0.00,0.0,cwc,2013-03-07 09:00:00,
2013-03-07 02:10:00,28.5,14.8,29.98,WSW,248,2.0,-999.0,62,-99.99,,,0.00,0.0,cwc,2013-03-07 09:10:00,
2013-03-07 02:15:00,28.3,15.3,29.98,WSW,248,0.0,-999.0,64,-99.99,,,0.00,0.0,cwc,2013-03-07 09:15:00,
2013-03-07 02:20:00,28.5,15.5,29.97,WSW,248,1.0,-999.0,64,-99.99,,,0.00,0.0,cwc,2013-03-07 09:20:00,
2013-03-07 02:25:00,28.5,15.5,29.98,WSW,248,2.0,-999.0,64,-99.99,,,0.00,0.0,cwc,2013-03-07 09:25:00,
2013-03-07 02:35:00,28.5,15.5,29.97,WSW,248,0.0,-999.0,64,-99.99,,,0.00,0.0,cwc,2013-03-07 09:35:00,
2013-03-07 02:40:00,28.4,15.1,29.97,WSW,248,0.0,-999.0,63,-99.99,,,0.00,0.0,cwc,2013-03-07 09:40:00,
2013-03-07 02:45:00,28.2,15.2,29.97,WSW,248,0.0,-999.0,64,-99.99,,,0.00,0.0,cwc,2013-03-07 09:45:00,
2013-03-07 02:50:00,28.1,15.5,29.97,WSW,248,0.0,-999.0,65,-99.99,,,0.00,0.0,cwc,2013-03-07 09:50:00,
2013-03-07 02:55:00,27.9,15.3,29.96,WSW,248,0.0,-999.0,65,-99.99,,,0.00,0.0,cwc,2013-03-07 09:55:00,
2013-03-07 03:00:00,27.7,15.1,29.96,WSW,248,2.0,-999.0,65,-99.99,,,0.00,0.0,cwc,2013-03-07 10:00:00,
2013-03-07 03:05:00,27.5,15.3,29.96,WSW,248,2.0,-999.0,66,-99.99,,,0.00,0.0,cwc,2013-03-07 10:05:00,
2013-03-07 03:10:00,27.8,15.9,29.96,WSW,248,0.0,-999.0,67,-99.99,,,0.00,0.0,cwc,2013-03-07 10:10:00,
2013-03-07 03:15:00,27.8,14.8,29.96,WSW,248,0.0,-999.0,64,-99.99,,,0.00,0.0,cwc,2013-03-07 10:15:00,
2013-03-07 03:20:00,27.5,14.9,29.97,WSW,248,0.0,-999.0,65,-99.99,,,0.00,0.0,cwc,2013-03-07 10:20:00,
2013-03-07 03:25:00,27.3,15.1,29.96,WSW,248,2.0,-999.0,66,-99.99,,,0.00,0.0,cwc,2013-03-07 10:25:00,
2013-03-07 03:30:00,26.9,14.3,29.96,WSW,248,3.0,-999.0,65,-99.99,,,0.00,0.0,cwc,2013-03-07 10:30:00,
2013-03-07 03:40:00,26.6,14.7,29.97,WSW,248,2.0,-999.0,67,-99.99,,,0.00,0.0,cwc,2013-03-07 10:40:00,
2013-03-07 03:45:00,26.9,15.7,29.97,WSW,249,2.0,-999.0,69,-99.99,,,0.00,0.0,cwc,2013-03-07 10:45:00,
2013-03-07 03:55:00,28.0,16.5,29.97,WSW,249,0.0,-999.0,68,-99.99,,,0.00,0.0,cwc,2013-03-07 10:55:00,
2013-03-07 04:00:00,28.5,15.9,29.97,WSW,249,0.0,-999.0,65,-99.99,,,0.00,0.0,cwc,2013-03-07 11:00:00,
2013-03-07 04:10:00,28.7,15.7,29.96,WSW,249,2.0,-999.0,64,-99.99,,,0.00,0.0,cwc,2013-03-07 11:10:00,
2013-03-07 04:15:00,28.5,15.9,29.97,WSW,249,2.0,-999.0,65,-99.99,,,0.00,0.0,cwc,2013-03-07 11:15:00,
2013-03-07 04:25:00,28.5,15.2,29.97,WSW,249,0.0,-999.0,63,-99.99,,,0.00,0.0,cwc,2013-03-07 11:25:00,
2013-03-07 04:30:00,28.1,14.4,29.97,WSW,249,0.0,-999.0,62,-99.99,,,0.00,0.0,cwc,2013-03-07 11:30:00,
2013-03-07 04:40:00,27.1,14.5,29.98,WSW,249,0.0,-999.0,65,-99.99,,,0.00,0.0,cwc,2013-03-07 11:40:00,
2013-03-07 04:45:00,26.6,14.4,29.98,WSW,249,2.0,-999.0,66,-99.99,,,0.00,0.0,cwc,2013-03-07 11:45:00,
2013-03-07 04:55:00,26.3,14.4,29.98,WSW,249,0.0,-999.0,67,-99.99,,,0.00,0.0,cwc,2013-03-07 11:55:00,
2013-03-07 05:00:00,26.2,14.7,29.98,WSW,249,2.0,-999.0,68,-99.99,,,0.00,0.0,cwc,2013-03-07 12:00:00,
2013-03-07 05:10:00,26.3,14.8,29.99,WSW,249,2.0,-999.0,68,-99.99,,,0.00,0.0,cwc,2013-03-07 12:10:00,
2013-03-07 05:15:00,26.2,14.7,29.99,WSW,249,1.0,-999.0,68,-99.99,,,0.00,0.0,cwc,2013-03-07 12:15:00,
2013-03-07 05:20:00,26.0,14.5,29.99,WSW,249,0.0,-999.0,68,-99.99,,,0.00,0.0,cwc,2013-03-07 12:20:00,
2013-03-07 05:25:00,25.8,14.3,29.99,WSW,249,0.0,-999.0,68,-99.99,,,0.00,0.0,cwc,2013-03-07 12:25:00,
2013-03-07 05:30:00,25.6,14.4,29.99,WSW,249,2.0,-999.0,69,-99.99,,,0.00,0.0,cwc,2013-03-07 12:30:00,
2013-03-07 05:40:00,25.3,14.1,29.99,WSW,249,1.0,-999.0,69,-99.99,,,0.00,0.0,cwc,2013-03-07 12:40:00,
2013-03-07 05:45:00,25.2,14.4,29.99,WSW,249,0.0,-999.0,70,-99.99,,,0.00,0.0,cwc,2013-03-07 12:45:00,
2013-03-07 05:55:00,24.7,14.3,29.99,WSW,249,2.0,-999.0,71,-99.99,,,0.00,0.0,cwc,2013-03-07 12:55:00,
2013-03-07 06:00:00,24.6,14.2,30.00,WSW,249,0.0,-999.0,71,-99.99,,,0.00,0.0,cwc,2013-03-07 13:00:00,
2013-03-07 06:10:00,24.4,14.3,30.00,WSW,249,2.0,-999.0,72,-99.99,,,0.00,0.0,cwc,2013-03-07 13:10:00,
2013-03-07 06:15:00,24.5,14.4,30.00,WSW,249,3.0,-999.0,72,-99.99,,,0.00,0.0,cwc,2013-03-07 13:15:00,
2013-03-07 06:20:00,24.7,14.3,30.00,WSW,249,0.0,-999.0,71,-99.99,,,0.00,0.0,cwc,2013-03-07 13:20:00,
2013-03-07 06:25:00,24.5,14.1,30.00,WSW,250,0.0,-999.0,71,-99.99,,,0.00,0.0,cwc,2013-03-07 13:25:00,
2013-03-07 06:35:00,24.1,14.4,30.01,WSW,249,0.0,-999.0,73,-99.99,,,0.00,9.0,cwc,2013-03-07 13:35:00,
2013-03-07 06:40:00,24.2,14.1,30.01,WSW,249,0.0,-999.0,72,-99.99,,,0.00,11.0,cwc,2013-03-07 13:40:00,
2013-03-07 06:45:00,24.2,14.1,30.01,WSW,249,0.0,-999.0,72,-99.99,,,0.00,14.0,cwc,2013-03-07 13:45:00,
2013-03-07 06:55:00,24.1,14.4,30.01,WSW,249,1.0,-999.0,73,-99.99,,,0.00,33.0,cwc,2013-03-07 13:55:00,
2013-03-07 07:00:00,24.2,14.5,30.02,WSW,249,0.0,-999.0,73,-99.99,,,0.00,51.0,cwc,2013-03-07 14:00:00,
2013-03-07 07:10:00,24.4,14.3,30.02,WSW,249,0.0,-999.0,72,-99.99,,,0.00,86.0,cwc,2013-03-07 14:10:00,
2013-03-07 07:15:00,24.7,14.6,30.02,WSW,249,0.0,-999.0,72,-99.99,,,0.00,105.0,cwc,2013-03-07 14:15:00,
2013-03-07 07:20:00,25.1,15.0,30.03,WSW,250,0.0,-999.0,72,-99.99,,,0.00,127.0,cwc,2013-03-07 14:20:00,
2013-03-07 07:25:00,25.8,15.4,30.03,WSW,250,1.0,-999.0,71,-99.99,,,0.00,144.0,cwc,2013-03-07 14:25:00,
2013-03-07 07:30:00,26.3,15.5,30.03,WSW,249,0.0,-999.0,70,-99.99,,,0.00,163.0,cwc,2013-03-07 14:30:00,
2013-03-07 07:40:00,27.7,16.2,30.02,WSW,250,0.0,-999.0,68,-99.99,,,0.00,200.0,cwc,2013-03-07 14:40:00,
2013-03-07 07:45:00,28.7,16.8,30.02,WSW,249,0.0,-999.0,67,-99.99,,,0.00,232.0,cwc,2013-03-07 14:45:00,
2013-03-07 07:55:00,30.5,17.5,30.02,WSW,250,0.0,-999.0,64,-99.99,,,0.00,278.0,cwc,2013-03-07 14:55:00,
2013-03-07 08:00:00,31.5,18.2,30.02,WSW,249,1.0,-999.0,63,-99.99,,,0.00,297.0,cwc,2013-03-07 15:00:00,
2013-03-07 08:10:00,33.9,18.8,30.02,WSW,249,0.0,-999.0,58,-99.99,,,0.00,332.0,cwc,2013-03-07 15:10:00,
2013-03-07 08:15:00,35.1,19.3,30.02,WSW,250,0.0,-999.0,56,-99.99,,,0.00,348.0,cwc,2013-03-07 15:15:00,
2013-03-07 08:25:00,37.1,19.5,30.01,West,263,3.0,-999.0,51,-99.99,,,0.00,374.0,cwc,2013-03-07 15:25:00,
2013-03-07 08:30:00,38.0,19.6,30.01,West,264,1.0,-999.0,49,-99.99,,,0.00,404.0,cwc,2013-03-07 15:30:00,
2013-03-07 08:35:00,38.7,20.3,30.01,West,264,0.0,-999.0,49,-99.99,,,0.00,418.0,cwc,2013-03-07 15:35:00,
2013-03-07 08:40:00,39.5,20.4,30.01,West,265,2.0,-999.0,47,-99.99,,,0.00,436.0,cwc,2013-03-07 15:40:00,
2013-03-07 08:45:00,40.1,20.7,30.01,West,270,1.0,-999.0,46,-99.99,,,0.00,455.0,cwc,2013-03-07 15:45:00,
2013-03-07 08:55:00,41.5,21.3,30.01,West,273,2.0,-999.0,44,-99.99,,,0.00,487.0,cwc,2013-03-07 15:55:00,
2013-03-07 09:00:00,42.5,21.6,30.01,West,273,2.0,-999.0,42,-99.99,,,0.00,503.0,cwc,2013-03-07 16:00:00,
2013-03-07 09:10:00,44.0,22.4,30.00,West,273,1.0,-999.0,40,-99.99,,,0.00,534.0,cwc,2013-03-07 16:10:00,
2013-03-07 09:15:00,45.3,23.3,30.00,West,273,0.0,-999.0,39,-99.99,,,0.00,547.0,cwc,2013-03-07 16:15:00,
2013-03-07 09:20:00,46.8,24.1,29.99,West,273,0.0,-999.0,37,-99.99,,,0.00,554.0,cwc,2013-03-07 16:20:00,
2013-03-07 09:25:00,48.1,25.1,29.99,West,273,0.0,-999.0,36,-99.99,,,0.00,578.0,cwc,2013-03-07 16:25:00,
2013-03-07 09:30:00,49.1,25.7,29.99,West,273,0.0,-999.0,35,-99.99,,,0.00,591.0,cwc,2013-03-07 16:30:00,
2013-03-07 09:40:00,50.8,26.7,29.99,West,273,0.0,-999.0,33,-99.99,,,0.00,617.0,cwc,2013-03-07 16:40:00,
2013-03-07 09:45:00,51.5,27.0,29.98,West,273,0.0,-999.0,32,-99.99,,,0.00,635.0,cwc,2013-03-07 16:45:00,
2013-03-07 09:55:00,52.3,27.5,29.98,West,273,0.0,-999.0,31,-99.99,,,0.00,657.0,cwc,2013-03-07 16:55:00,
2013-03-07 10:00:00,53.1,27.9,29.98,West,276,2.0,-999.0,30,-99.99,,,0.00,670.0,cwc,2013-03-07 17:00:00,
2013-03-07 10:05:00,54.0,28.8,29.98,West,275,0.0,-999.0,30,-99.99,,,0.00,682.0,cwc,2013-03-07 17:05:00,
2013-03-07 10:10:00,54.9,29.3,29.97,West,278,4.0,-999.0,29,-99.99,,,0.00,693.0,cwc,2013-03-07 17:10:00,
2013-03-07 10:15:00,55.1,29.5,29.97,West,278,2.0,-999.0,29,-99.99,,,0.00,701.0,cwc,2013-03-07 17:15:00,
2013-03-07 10:20:00,55.3,29.7,29.97,West,279,3.0,-999.0,29,-99.99,,,0.00,710.0,cwc,2013-03-07 17:20:00,
2013-03-07 10:25:00,55.8,29.9,29.96,West,279,0.0,-999.0,28,-99.99,,,0.00,719.0,cwc,2013-03-07 17:25:00,
2013-03-07 10:30:00,56.0,29.7,29.96,WNW,286,3.0,-999.0,27,-99.99,,,0.00,729.0,cwc,2013-03-07 17:30:00,
2013-03-07 10:40:00,56.6,30.0,29.96,WNW,300,1.0,-999.0,26,-99.99,,,0.00,745.0,cwc,2013-03-07 17:40:00,
2013-03-07 10:45:00,57.2,30.6,29.95,WNW,302,4.0,-999.0,26,-99.99,,,0.00,752.0,cwc,2013-03-07 17:45:00,
2013-03-07 10:55:00,58.5,30.8,29.95,NW,323,0.0,-999.0,23,-99.99,,,0.00,773.0,cwc,2013-03-07 17:55:00,
2013-03-07 11:00:00,59.0,31.6,29.94,NNW,334,5.0,-999.0,24,-99.99,,,0.00,779.0,cwc,2013-03-07 18:00:00,
2013-03-07 11:05:00,59.3,31.2,29.94,NNE,22,2.0,-999.0,22,-99.99,,,0.00,786.0,cwc,2013-03-07 18:05:00,
2013-03-07 11:15:00,60.0,31.9,29.94,NNE,15,5.0,-999.0,22,-99.99,,,0.00,798.0,cwc,2013-03-07 18:15:00,
2013-03-07 11:20:00,60.4,32.0,29.93,NNE,17,3.0,-999.0,21,-99.99,,,0.00,805.0,cwc,2013-03-07 18:20:00,
2013-03-07 11:25:00,60.4,32.3,29.93,NNE,17,0.0,-999.0,22,-99.99,,,0.00,805.0,cwc,2013-03-07 18:25:00,
2013-03-07 11:30:00,60.8,32.4,29.93,NW,317,2.0,-999.0,21,-99.99,,,0.00,810.0,cwc,2013-03-07 18:30:00,
2013-03-07 11:40:00,61.7,32.9,29.92,NNE,26,1.0,-999.0,20,-99.99,,,0.00,817.0,cwc,2013-03-07 18:40:00,
2013-03-07 11:45:00,62.4,33.6,29.92,SW,223,0.0,-999.0,20,-99.99,,,0.00,821.0,cwc,2013-03-07 18:45:00,
2013-03-07 11:55:00,62.7,33.9,29.92,South,171,1.0,-999.0,20,-99.99,,,0.00,826.0,cwc,2013-03-07 18:55:00,
2013-03-07 12:00:00,63.0,34.2,29.91,East,81,0.0,-999.0,20,-99.99,,,0.00,830.0,cwc,2013-03-07 19:00:00,
2013-03-07 12:10:00,63.8,35.0,29.91,East,79,2.0,-999.0,20,-99.99,,,0.00,833.0,cwc,2013-03-07 19:10:00,
2013-03-07 12:15:00,63.9,34.7,29.90,NE,36,3.0,-999.0,19,-99.99,,,0.00,833.0,cwc,2013-03-07 19:15:00,
2013-03-07 12:25:00,64.1,34.9,29.90,ENE,58,0.0,-999.0,19,-99.99,,,0.00,835.0,cwc,2013-03-07 19:25:00,
2013-03-07 12:30:00,64.5,35.0,29.90,South,176,0.0,-999.0,18,-99.99,,,0.00,831.0,cwc,2013-03-07 19:30:00,
2013-03-07 12:40:00,64.3,34.4,29.89,SW,234,0.0,-999.0,17,-99.99,,,0.00,824.0,cwc,2013-03-07 19:40:00,
2013-03-07 12:45:00,64.3,34.8,29.88,SW,235,1.0,-999.0,18,-99.99,,,0.00,823.0,cwc,2013-03-07 19:45:00,
2013-03-07 12:55:00,64.6,34.7,29.87,SW,230,3.0,-999.0,17,-99.99,,,0.00,816.0,cwc,2013-03-07 19:55:00,
2013-03-07 13:00:00,64.5,34.6,29.87,SW,221,6.0,-999.0,17,-99.99,,,0.00,809.0,cwc,2013-03-07 20:00:00,
2013-03-07 13:10:00,64.7,35.2,29.86,WSW,237,1.0,-999.0,18,-99.99,,,0.00,800.0,cwc,2013-03-07 20:10:00,
2013-03-07 13:20:00,65.5,35.6,29.85,South,174,3.0,-999.0,17,-99.99,,,0.00,795.0,cwc,2013-03-07 20:20:00,
2013-03-07 13:25:00,65.7,35.8,29.85,WSW,249,4.0,-999.0,17,-99.99,,,0.00,784.0,cwc,2013-03-07 20:25:00,
2013-03-07 13:30:00,65.8,36.3,29.84,WSW,237,0.0,-999.0,18,-99.99,,,0.00,777.0,cwc,2013-03-07 20:30:00,
2013-03-07 13:40:00,66.8,36.9,29.84,West,277,1.0,-999.0,17,-99.99,,,0.00,765.0,cwc,2013-03-07 20:40:00,
2013-03-07 13:45:00,67.4,37.5,29.83,West,273,2.0,-999.0,17,-99.99,,,0.00,756.0,cwc,2013-03-07 20:45:00,
2013-03-07 13:55:00,66.8,36.9,29.83,SW,226,0.0,-999.0,17,-99.99,,,0.00,737.0,cwc,2013-03-07 20:55:00,
2013-03-07 14:00:00,66.7,36.8,29.83,SW,223,1.0,-999.0,17,-99.99,,,0.00,726.0,cwc,2013-03-07 21:00:00,
2013-03-07 14:10:00,66.8,36.9,29.82,NE,49,1.0,-999.0,17,-99.99,,,0.00,707.0,cwc,2013-03-07 21:10:00,
2013-03-07 14:15:00,67.0,37.1,29.82,South,178,0.0,-999.0,17,-99.99,,,0.00,696.0,cwc,2013-03-07 21:15:00,
2013-03-07 14:25:00,67.7,37.8,29.81,NNW,342,5.0,-999.0,17,-99.99,,,0.00,680.0,cwc,2013-03-07 21:25:00,
2013-03-07 14:30:00,67.9,38.0,29.81,SW,217,5.0,-999.0,17,-99.99,,,0.00,664.0,cwc,2013-03-07 21:30:00,
2013-03-07 14:35:00,68.2,38.0,29.81,SW,217,1.0,-999.0,16,-99.99,,,0.00,652.0,cwc,2013-03-07 21:35:00,
2013-03-07 14:45:00,68.6,38.0,29.81,SW,219,12.0,-999.0,15,-99.99,,,0.00,628.0,cwc,2013-03-07 21:45:00,
2013-03-07 14:50:00,68.2,37.6,29.81,SSW,209,7.0,-999.0,15,-99.99,,,0.00,613.0,cwc,2013-03-07 21:50:00,
2013-03-07 14:55:00,67.9,37.3,29.80,SSW,207,1.0,-999.0,15,-99.99,,,0.00,606.0,cwc,2013-03-07 21:55:00,
2013-03-07 15:00:00,68.3,37.7,29.80,SSE,164,1.0,-999.0,15,-99.99,,,0.00,587.0,cwc,2013-03-07 22:00:00,
2013-03-07 15:10:00,68.6,37.6,29.80,SSW,199,11.0,-999.0,14,-99.99,,,0.00,557.0,cwc,2013-03-07 22:10:00,
2013-03-07 15:15:00,67.7,36.7,29.80,SW,215,13.0,-999.0,14,-99.99,,,0.00,543.0,cwc,2013-03-07 22:15:00,
2013-03-07 15:25:00,67.1,36.5,29.80,South,169,8.0,-999.0,15,-99.99,,,0.00,512.0,cwc,2013-03-07 22:25:00,
2013-03-07 15:30:00,66.9,36.3,29.80,SW,218,17.0,-999.0,15,-99.99,,,0.00,496.0,cwc,2013-03-07 22:30:00,
2013-03-07 15:40:00,66.6,35.6,29.79,SSW,211,11.0,-999.0,14,-99.99,,,0.00,478.0,cwc,2013-03-07 22:40:00,
2013-03-07 15:45:00,66.8,35.1,29.79,South,182,12.0,-999.0,12,-99.99,,,0.00,452.0,cwc,2013-03-07 22:45:00,
2013-03-07 15:55:00,66.1,34.8,29.79,South,187,13.0,-999.0,13,-99.99,,,0.00,417.0,cwc,2013-03-07 22:55:00,
2013-03-07 16:00:00,65.9,34.6,29.80,SSW,207,13.0,-999.0,13,-99.99,,,0.00,404.0,cwc,2013-03-07 23:00:00,
2013-03-07 16:10:00,66.1,34.4,29.79,SSE,168,8.0,-999.0,12,-99.99,,,0.00,371.0,cwc,2013-03-07 23:10:00,
2013-03-07 16:15:00,66.4,34.7,29.79,SSW,195,12.0,-999.0,12,-99.99,,,0.00,350.0,cwc,2013-03-07 23:15:00,
2013-03-07 16:25:00,66.0,34.7,29.80,SSW,200,17.0,-999.0,13,-99.99,,,0.00,313.0,cwc,2013-03-07 23:25:00,
2013-03-07 16:30:00,65.8,34.5,29.79,SW,225,18.0,-999.0,13,-99.99,,,0.00,292.0,cwc,2013-03-07 23:30:00,
2013-03-07 16:40:00,65.3,34.0,29.79,SSW,204,11.0,-999.0,13,-99.99,,,0.00,250.0,cwc,2013-03-07 23:40:00,
2013-03-07 16:45:00,65.1,34.1,29.79,SSW,212,7.0,-999.0,14,-99.99,,,0.00,156.0,cwc,2013-03-07 23:45:00,
2013-03-07 16:55:00,63.9,32.9,29.79,SSE,161,10.0,-999.0,14,-99.99,,,0.00,25.0,cwc,2013-03-07 23:55:00,
2013-03-07 17:00:00,63.5,32.9,29.79,WSW,250,3.0,-999.0,15,-99.99,,,0.00,23.0,cwc,2013-03-08 00:00:00,
2013-03-07 17:05:00,63.2,32.6,29.80,SW,234,15.0,-999.0,15,-99.99,,,0.00,23.0,cwc,2013-03-08 00:05:00,
2013-03-07 17:10:00,62.9,32.3,29.80,SW,221,18.0,-999.0,15,-99.99,,,0.00,21.0,cwc,2013-03-08 00:10:00,
2013-03-07 17:15:00,62.6,32.0,29.80,SW,215,12.0,-999.0,15,-99.99,,,0.00,19.0,cwc,2013-03-08 00:15:00,
2013-03-07 17:25:00,62.2,32.0,29.80,SSW,211,7.0,-999.0,16,-99.99,,,0.00,18.0,cwc,2013-03-08 00:25:00,
2013-03-07 17:30:00,62.2,32.0,29.80,WSW,249,13.0,-999.0,16,-99.99,,,0.00,16.0,cwc,2013-03-08 00:30:00,
2013-03-07 17:40:00,62.1,31.9,29.80,SW,219,7.0,-999.0,16,-99.99,,,0.00,14.0,cwc,2013-03-08 00:40:00,
2013-03-07 17:45:00,61.8,31.9,29.80,SSW,195,10.0,-999.0,17,-99.99,,,0.00,12.0,cwc,2013-03-08 00:45:00,
2013-03-07 17:55:00,61.4,31.5,29.80,SW,216,8.0,-999.0,17,-99.99,,,0.00,7.0,cwc,2013-03-08 00:55:00,
2013-03-07 18:00:00,61.1,31.2,29.80,SSW,206,5.0,-999.0,17,-99.99,,,0.00,5.0,cwc,2013-03-08 01:00:00,
2013-03-07 18:10:00,60.8,30.9,29.80,SW,234,4.0,-999.0,17,-99.99,,,0.00,0.0,cwc,2013-03-08 01:10:00,
2013-03-07 18:15:00,60.5,30.6,29.80,SSW,202,5.0,-999.0,17,-99.99,,,0.00,0.0,cwc,2013-03-08 01:15:00,
2013-03-07 18:25:00,59.9,30.4,29.80,SW,232,5.0,-999.0,18,-99.99,,,0.00,0.0,cwc,2013-03-08 01:25:00,
2013-03-07 18:30:00,59.4,29.9,29.80,SW,232,4.0,-999.0,18,-99.99,,,0.00,0.0,cwc,2013-03-08 01:30:00,
2013-03-07 18:35:00,59.0,29.5,29.81,SW,232,4.0,-999.0,18,-99.99,,,0.00,0.0,cwc,2013-03-08 01:35:00,
2013-03-07 18:40:00,58.6,29.4,29.81,SW,233,2.0,-999.0,19,-99.99,,,0.00,0.0,cwc,2013-03-08 01:40:00,
2013-03-07 18:45:00,58.0,28.8,29.81,SW,233,3.0,-999.0,19,-99.99,,,0.00,0.0,cwc,2013-03-08 01:45:00,
2013-03-07 18:55:00,56.6,27.8,29.81,SW,234,3.0,-999.0,20,-99.99,,,0.00,0.0,cwc,2013-03-08 01:55:00,
2013-03-07 19:00:00,56.1,27.3,29.82,SW,234,4.0,-999.0,20,-99.99,,,0.00,0.0,cwc,2013-03-08 02:00:00,
2013-03-07 19:05:00,55.5,27.1,29.82,SW,235,7.0,-999.0,21,-99.99,,,0.00,0.0,cwc,2013-03-08 02:05:00,
2013-03-07 19:10:00,55.2,26.8,29.82,SW,236,3.0,-999.0,21,-99.99,,,0.00,0.0,cwc,2013-03-08 02:10:00,
2013-03-07 19:15:00,55.2,26.8,29.82,WSW,237,4.0,-999.0,21,-99.99,,,0.00,0.0,cwc,2013-03-08 02:15:00,
2013-03-07 19:20:00,55.0,26.6,29.82,WSW,237,3.0,-999.0,21,-99.99,,,0.00,0.0,cwc,2013-03-08 02:20:00,
2013-03-07 19:25:00,54.7,26.3,29.82,WSW,237,3.0,-999.0,21,-99.99,,,0.00,0.0,cwc,2013-03-08 02:25:00,
2013-03-07 19:30:00,54.3,26.2,29.82,SW,236,6.0,-999.0,22,-99.99,,,0.00,0.0,cwc,2013-03-08 02:30:00,
2013-03-07 19:40:00,53.3,25.2,29.82,SW,236,2.0,-999.0,22,-99.99,,,0.00,0.0,cwc,2013-03-08 02:40:00,
2013-03-07 19:45:00,53.1,25.4,29.82,SW,236,0.0,-999.0,23,-99.99,,,0.00,0.0,cwc,2013-03-08 02:45:00,
2013-03-07 19:55:00,52.6,24.9,29.83,SW,236,0.0,-999.0,23,-99.99,,,0.00,0.0,cwc,2013-03-08 02:55:00,
2013-03-07 20:00:00,52.1,24.4,29.82,SW,236,0.0,-999.0,23,-99.99,,,0.00,0.0,cwc,2013-03-08 03:00:00,
2013-03-07 20:15:00,50.6,23.2,29.83,SW,236,0.0,-999.0,24,-99.99,,,0.00,0.0,cwc,2013-03-08 03:15:00,
2013-03-07 20:25:00,49.9,22.9,29.83,SW,236,0.0,-999.0,25,-99.99,,,0.00,0.0,cwc,2013-03-08 03:25:00,
2013-03-07 20:30:00,49.5,22.5,29.83,SW,236,2.0,-999.0,25,-99.99,,,0.00,0.0,cwc,2013-03-08 03:30:00,
2013-03-07 20:40:00,48.1,21.5,29.83,SW,236,1.0,-999.0,26,-99.99,,,0.00,0.0,cwc,2013-03-08 03:40:00,
2013-03-07 20:45:00,47.0,21.1,29.83,SW,236,3.0,-999.0,28,-99.99,,,0.00,0.0,cwc,2013-03-08 03:45:00,
2013-03-07 20:55:00,45.5,19.9,29.83,SW,236,1.0,-999.0,29,-99.99,,,0.00,0.0,cwc,2013-03-08 03:55:00,
2013-03-07 21:00:00,45.0,19.8,29.84,SW,236,3.0,-999.0,30,-99.99,,,0.00,0.0,cwc,2013-03-08 04:00:00,
2013-03-07 21:05:00,44.6,19.4,29.84,SW,236,4.0,-999.0,30,-99.99,,,0.00,0.0,cwc,2013-03-08 04:05:00,
2013-03-07 21:10:00,44.0,19.2,29.84,SW,236,0.0,-999.0,31,-99.99,,,0.00,0.0,cwc,2013-03-08 04:10:00,
2013-03-07 21:15:00,43.4,18.6,29.84,SW,236,3.0,-999.0,31,-99.99,,,0.00,0.0,cwc,2013-03-08 04:15:00,
2013-03-07 21:20:00,42.7,18.2,29.85,SW,236,6.0,-999.0,32,-99.99,,,0.00,0.0,cwc,2013-03-08 04:20:00,
2013-03-07 21:25:00,42.6,18.1,29.85,SSW,203,3.0,-999.0,32,-99.99,,,0.00,0.0,cwc,2013-03-08 04:25:00,
2013-03-07 21:30:00,43.2,18.7,29.85,SSW,203,1.0,-999.0,32,-99.99,,,0.00,0.0,cwc,2013-03-08 04:30:00,
2013-03-07 21:35:00,43.9,19.1,29.85,SSW,203,0.0,-999.0,31,-99.99,,,0.00,0.0,cwc,2013-03-08 04:35:00,
2013-03-07 21:40:00,44.1,19.3,29.85,SSW,204,4.0,-999.0,31,-99.99,,,0.00,0.0,cwc,2013-03-08 04:40:00,
2013-03-07 21:50:00,46.3,21.1,29.86,West,264,3.0,-999.0,30,-99.99,,,0.00,0.0,cwc,2013-03-08 04:50:00,
2013-03-07 21:55:00,47.6,22.0,29.86,West,264,0.0,-999.0,29,-99.99,,,0.00,0.0,cwc,2013-03-08 04:55:00,
2013-03-07 22:00:00,47.9,22.3,29.85,West,264,0.0,-999.0,29,-99.99,,,0.00,0.0,cwc,2013-03-08 05:00:00,
2013-03-07 22:05:00,47.9,22.3,29.85,West,264,0.0,-999.0,29,-99.99,,,0.00,0.0,cwc,2013-03-08 05:05:00,
2013-03-07 22:10:00,47.2,21.6,29.86,West,263,3.0,-999.0,29,-99.99,,,0.00,0.0,cwc,2013-03-08 05:10:00,
2013-03-07 22:15:00,46.4,21.2,29.85,West,263,0.0,-999.0,30,-99.99,,,0.00,0.0,cwc,2013-03-08 05:15:00,
2013-03-07 22:20:00,45.8,20.6,29.85,West,263,1.0,-999.0,30,-99.99,,,0.00,0.0,cwc,2013-03-08 05:20:00,
2013-03-07 22:25:00,45.1,20.3,29.86,West,263,0.0,-999.0,31,-99.99,,,0.00,0.0,cwc,2013-03-08 05:25:00,
2013-03-07 22:30:00,44.8,20.0,29.86,West,263,0.0,-999.0,31,-99.99,,,0.00,0.0,cwc,2013-03-08 05:30:00,
2013-03-07 22:35:00,44.7,20.2,29.85,NW,305,1.0,-999.0,32,-99.99,,,0.00,0.0,cwc,2013-03-08 05:35:00,
2013-03-07 22:40:00,44.2,19.7,29.85,NW,304,5.0,-999.0,32,-99.99,,,0.00,0.0,cwc,2013-03-08 05:40:00,
2013-03-07 22:45:00,43.9,19.4,29.85,NW,304,0.0,-999.0,32,-99.99,,,0.00,0.0,cwc,2013-03-08 05:45:00,
2013-03-07 22:55:00,43.2,19.1,29.84,NW,304,1.0,-999.0,33,-99.99,,,0.00,0.0,cwc,2013-03-08 05:55:00,
2013-03-07 23:00:00,43.0,18.9,29.85,WNW,303,1.0,-999.0,33,-99.99,,,0.00,0.0,cwc,2013-03-08 06:00:00,
2013-03-07 23:10:00,43.1,19.3,29.84,WNW,303,0.0,-999.0,34,-99.99,,,0.00,0.0,cwc,2013-03-08 06:10:00,
2013-03-07 23:15:00,42.9,19.1,29.84,NW,304,2.0,-999.0,34,-99.99,,,0.00,0.0,cwc,2013-03-08 06:15:00,
2013-03-07 23:25:00,41.9,18.5,29.84,WNW,303,2.0,-999.0,35,-99.99,,,0.00,0.0,cwc,2013-03-08 06:25:00,
2013-03-07 23:30:00,41.3,17.9,29.84,NW,304,0.0,-999.0,35,-99.99,,,0.00,0.0,cwc,2013-03-08 06:30:00,
2013-03-07 23:35:00,40.9,17.5,29.84,NW,304,0.0,-999.0,35,-99.99,,,0.00,0.0,cwc,2013-03-08 06:35:00,
2013-03-07 23:40:00,41.2,17.8,29.85,NW,306,3.0,-999.0,35,-99.99,,,0.00,0.0,cwc,2013-03-08 06:40:00,
2013-03-07 23:45:00,42.3,18.5,29.85,NNW,348,0.0,-999.0,34,-99.99,,,0.00,0.0,cwc,2013-03-08 06:45:00,
2013-03-07 23:55:00,43.8,19.7,29.85,NW,324,2.0,-999.0,33,-99.99,,,0.00,0.0,cwc,2013-03-08 06:55:00,